EW5369 Weather Reports


Display with metric or nautical units.
time (UTC)temp
F
wind
direction
speed
MPH
gust
MPH
rain 1hr
in
rain 24hr
in
rain mn
in
humidity
%
barometer
mb
20210917232858 78 96 0.0 0.0 0.00 0.47 0.47 90 1018.0
20210917232357 78 96 0.0 0.0 0.00 0.47 0.47 90 1018.2
20210917231858 78 96 0.0 0.0 0.00 0.47 0.47 90 1018.3
20210917231357 78 96 0.0 0.0 0.00 0.47 0.47 90 1018.4
20210917230857 78 96 0.0 0.0 0.00 0.47 0.47 90 1018.5
20210917230357 78 96 0.0 0.0 0.00 0.47 0.47 90 1018.2
20210917225859 78 96 0.0 0.0 0.00 0.47 0.47 90 1018.2
20210917225359 78 96 0.0 0.0 0.00 0.47 0.47 90 1018.3
20210917224857 78 96 0.0 0.0 0.00 0.47 0.47 90 1018.3
20210917224358 78 96 0.0 0.0 0.00 0.47 0.47 90 1018.2
20210917223858 78 96 0.0 0.0 0.00 0.47 0.47 90 1018.1
20210917223358 79 96 0.0 0.0 0.00 0.47 0.47 90 1018.1
20210917222854 79 96 0.0 0.0 0.00 0.47 0.47 90 1018.0
20210917222356 78 96 0.0 0.0 0.00 0.47 0.47 90 1018.0
20210917221856 78 95 0.0 0.0 0.00 0.47 0.47 90 1017.9
20210917221354 78 95 0.0 0.0 0.00 0.47 0.47 90 1018.2
20210917220855 78 95 0.0 0.0 0.00 0.47 0.47 90 1018.2
20210917220355 78 95 0.0 0.0 0.00 0.47 0.47 89 1018.1
20210917215856 78 95 0.0 0.0 0.00 0.47 0.47 89 1018.0
20210917215355 78 95 0.0 0.0 0.10 0.47 0.47 89 1018.0
20210917214855 78 95 0.0 0.0 0.20 0.47 0.47 89 1018.0
20210917214356 78 95 0.0 0.0 0.22 0.47 0.47 89 1018.0
20210917213858 78 99 0.0 0.0 0.26 0.47 0.47 89 1018.0
20210917213354 78 99 0.0 0.0 0.34 0.47 0.47 89 1018.0
20210917212856 78 99 0.0 0.0 0.42 0.47 0.47 89 1017.9
20210917212356 78 99 0.0 0.0 0.47 0.47 0.47 88 1017.8
20210917211855 78 99 0.0 0.0 0.47 0.47 0.47 87 1017.8
20210917211354 78 99 0.0 0.0 0.47 0.47 0.47 87 1017.7
20210917210854 78 99 0.0 0.0 0.47 0.47 0.47 87 1017.8
20210917210353 79 99 0.0 0.0 0.47 0.47 0.47 87 1017.8
20210917205849 79 103 0.0 4.0 0.47 0.47 0.47 86 1017.9
20210917205349 80 293 0.0 4.0 0.37 0.37 0.39 85 1018.1
20210917204847 80 287 0.0 0.0 0.27 0.27 0.27 85 1018.0
20210917204348 81 340 0.0 0.0 0.25 0.25 0.26 85 1017.8
20210917203847 81 287 0.0 2.0 0.21 0.21 0.22 84 1017.8
20210917203343 82 236 0.0 2.0 0.13 0.13 0.13 84 1017.9
20210917202845 82 214 0.0 0.0 0.02 0.02 0.04 83 1017.8
20210917202342 82 118 0.0 0.0 0.00 0.00 0.00 83 1017.6
20210917201841 82 118 0.0 0.0 0.00 0.00 0.00 83 1017.6
20210917201338 83 118 0.0 0.0 0.00 0.00 0.00 83 1017.8
20210917200835 83 118 0.0 0.0 0.00 0.00 0.00 82 1017.9
20210917200336 83 118 0.0 0.0 0.00 0.00 0.00 82 1018.0
20210917195835 83 118 0.0 0.0 0.00 0.00 0.00 82 1018.0
20210917195335 83 118 0.0 0.0 0.00 0.00 0.00 82 1018.1
20210917194837 83 118 0.0 0.0 0.00 0.00 0.00 82 1018.1
20210917194335 83 118 0.0 0.0 0.00 0.00 0.00 82 1018.1
20210917193832 83 113 0.0 0.0 0.00 0.01 0.00 82 1018.2
20210917193332 83 140 0.0 0.0 0.00 0.01 0.00 81 1018.3
20210917192829 83 94 0.0 0.0 0.00 0.01 0.00 81 1018.3
20210917192328 83 102 0.0 0.0 0.00 0.01 0.00 80 1018.5
20210917191827 83 121 0.0 0.0 0.00 0.01 0.00 81 1018.5
20210917191327 83 88 0.0 5.0 0.00 0.01 0.00 81 1018.4
20210917190826 83 78 0.0 5.0 0.00 0.02 0.00 81 1018.5
20210917190326 83 236 0.0 1.0 0.00 0.03 0.00 79 1018.5
20210917185822 83 112 0.0 2.0 0.00 0.03 0.00 82 1018.6
20210917185322 83 131 0.0 2.0 0.00 0.03 0.00 80 1018.6
20210917184822 83 48 0.0 0.0 0.00 0.04 0.00 81 1018.6
20210917184323 82 123 0.0 1.0 0.00 0.04 0.00 81 1018.8
20210917183821 82 85 0.0 1.0 0.00 0.04 0.00 82 1019.0
20210917183320 82 53 0.0 1.0 0.00 0.04 0.00 82 1019.0
20210917182819 83 104 0.0 0.0 0.00 0.04 0.00 81 1019.1
20210917182319 83 99 0.0 0.0 0.00 0.05 0.00 81 1019.2
20210917181819 82 97 0.0 0.0 0.00 0.06 0.00 82 1019.3
20210917181318 81 159 0.0 0.0 0.00 0.06 0.00 82 1019.4
20210917180819 80 113 0.0 5.0 0.00 0.07 0.00 84 1019.5
20210917180315 80 160 0.0 5.0 0.00 0.08 0.00 84 1019.5
20210917175816 81 187 0.0 3.0 0.00 0.08 0.00 84 1019.6
20210917175314 81 108 0.0 3.0 0.00 0.08 0.00 82 1019.7
20210917174811 81 88 0.0 1.0 0.00 0.08 0.00 84 1019.8
20210917174308 81 192 0.0 1.0 0.00 0.08 0.00 84 1019.9
20210917173808 80 192 0.0 0.0 0.00 0.08 0.00 84 1020.0
20210917173307 80 102 0.0 0.0 0.00 0.08 0.00 85 1019.9
20210917172807 80 175 0.0 0.0 0.00 0.08 0.00 85 1020.0
20210917172305 80 144 0.0 0.0 0.00 0.08 0.00 86 1020.1
20210917171803 80 156 0.0 0.0 0.00 0.08 0.00 86 1020.1
20210917171259 79 210 0.0 0.0 0.00 0.08 0.00 86 1020.3
20210917170801 79 140 0.0 0.0 0.00 0.08 0.00 87 1020.3
20210917170259 79 131 0.0 0.0 0.00 0.08 0.00 88 1020.4
20210917165759 78 128 0.0 0.0 0.00 0.08 0.00 88 1020.4
20210917165255 78 123 0.0 0.0 0.00 0.08 0.00 88 1020.5
20210917164752 77 129 0.0 0.0 0.00 0.08 0.00 89 1020.5
20210917164252 77 159 0.0 0.0 0.00 0.08 0.00 89 1020.5
20210917163749 77 119 0.0 0.0 0.00 0.08 0.00 89 1020.5
20210917163249 77 173 0.0 0.0 0.00 0.08 0.00 89 1020.5
20210917162750 77 94 0.0 0.0 0.00 0.08 0.00 89 1020.5
20210917162249 77 131 0.0 0.0 0.00 0.08 0.00 90 1020.5
20210917161750 77 117 0.0 0.0 0.00 0.08 0.00 90 1020.5
20210917161249 76 118 0.0 0.0 0.00 0.09 0.00 90 1020.5
20210917160751 76 96 0.0 0.0 0.00 0.09 0.00 91 1020.5
20210917160248 76 202 0.0 0.0 0.00 0.09 0.00 91 1020.5
20210917155745 76 226 0.0 0.0 0.00 0.10 0.00 91 1020.5
20210917155245 76 108 0.0 0.0 0.00 0.10 0.00 91 1020.5
20210917154745 76 178 0.0 0.0 0.00 0.10 0.00 91 1020.6
20210917154246 76 125 0.0 0.0 0.00 0.10 0.00 91 1020.5
20210917153745 76 147 0.0 0.0 0.00 0.10 0.00 92 1020.5
20210917153246 76 104 0.0 0.0 0.00 0.10 0.00 92 1020.5
20210917152747 76 129 0.0 0.0 0.00 0.10 0.00 92 1020.5
20210917152244 76 155 0.0 1.0 0.00 0.10 0.00 92 1020.3
20210917151741 76 161 0.0 1.0 0.00 0.10 0.00 92 1020.3
20210917151241 76 143 0.0 1.0 0.00 0.10 0.00 92 1020.4
20210917150740 75 139 0.0 1.0 0.00 0.10 0.00 92 1020.4
20210917150226 75 146 0.0 5.0 0.00 0.10 0.00 93 1020.3
20210917145726 75 84 0.0 5.0 0.00 0.10 0.00 93 1020.2
20210917145224 75 140 0.0 0.0 0.00 0.10 0.00 93 1020.2
20210917144723 75 144 0.0 0.0 0.00 0.10 0.00 93 1020.2
20210917144224 75 150 0.0 0.0 0.00 0.10 0.00 92 1020.1
20210917143724 75 154 0.0 0.0 0.00 0.10 0.00 93 1020.1
20210917143225 75 110 0.0 0.0 0.00 0.10 0.00 93 1020.1
20210917142725 75 163 0.0 0.0 0.00 0.10 0.00 93 1020.0
20210917142224 75 117 0.0 0.0 0.00 0.10 0.00 93 1020.0
20210917141725 75 117 0.0 0.0 0.00 0.10 0.00 93 1019.9
20210917141222 75 115 0.0 0.0 0.00 0.10 0.00 93 1019.7
20210917140723 75 131 0.0 0.0 0.00 0.10 0.00 93 1019.6
20210917140222 75 125 0.0 0.0 0.00 0.10 0.00 93 1019.5
20210917135723 74 104 0.0 1.0 0.00 0.10 0.00 93 1019.4
20210917135220 74 140 0.0 2.0 0.00 0.11 0.00 93 1019.3
20210917134719 75 127 0.0 4.0 0.00 0.11 0.00 93 1019.2
20210917134221 74 125 0.0 4.0 0.00 0.11 0.00 93 1019.1
20210917133719 74 125 0.0 1.0 0.00 0.11 0.00 93 1019.2
20210917133218 74 125 0.0 1.0 0.00 0.11 0.00 93 1019.1
20210917132718 74 81 0.0 0.0 0.00 0.11 0.00 93 1019.0
20210917132217 74 117 0.0 0.0 0.00 0.11 0.00 93 1019.1
20210917131716 74 88 0.0 0.0 0.00 0.12 0.00 93 1019.0
20210917131219 74 144 0.0 0.0 0.00 0.13 0.00 93 1019.1
20210917130715 74 128 0.0 0.0 0.00 0.15 0.00 93 1019.1
20210917130215 73 215 0.0 0.0 0.00 0.16 0.00 93 1019.1
20210917125716 73 104 0.0 3.0 0.00 0.18 0.00 93 1019.1
20210917125216 73 115 0.0 3.0 0.00 0.19 0.00 93 1019.1
20210917124714 73 113 0.0 1.0 0.00 0.21 0.00 93 1019.1
20210917124216 73 167 0.0 0.0 0.00 0.22 0.00 93 1019.0
20210917123714 73 149 0.0 0.0 0.00 0.23 0.00 93 1019.0
20210917123214 73 101 0.0 0.0 0.00 0.24 0.00 93 1019.0
20210917122716 73 106 0.0 0.0 0.00 0.25 0.00 93 1019.0
20210917122215 73 116 0.0 0.0 0.00 0.25 0.00 93 1019.0
20210917121715 73 129 0.0 0.0 0.00 0.26 0.00 93 1018.9
20210917121212 72 129 0.0 0.0 0.00 0.27 0.00 92 1018.9
20210917120712 72 138 0.0 0.0 0.00 0.27 0.00 92 1018.9
20210917120212 72 131 0.0 0.0 0.00 0.28 0.00 92 1018.9
20210917115712 72 140 0.0 0.0 0.00 0.28 0.00 92 1018.8
20210917115213 72 145 0.0 0.0 0.00 0.28 0.00 92 1018.8
20210917114711 72 145 0.0 0.0 0.00 0.28 0.00 92 1018.8
20210917114208 72 146 0.0 0.0 0.00 0.28 0.00 92 1018.7
20210917113652 72 146 0.0 0.0 0.00 0.28 0.00 92 1018.7
20210917113151 72 146 0.0 0.0 0.00 0.29 0.00 92 1018.7
20210917112651 72 192 0.0 0.0 0.00 0.29 0.00 92 1018.7
20210917112149 72 127 0.0 0.0 0.00 0.29 0.00 92 1018.6
20210917111648 72 121 0.0 0.0 0.00 0.29 0.00 92 1018.5
20210917111147 72 129 0.0 0.0 0.00 0.29 0.00 92 1018.4
20210917110632 72 93 0.0 0.0 0.00 0.29 0.00 92 1018.2
20210917110131 72 93 0.0 0.0 0.00 0.29 0.00 92 1018.1
20210917105630 72 111 0.0 0.0 0.00 0.29 0.00 92 1018.1
20210917105129 72 125 0.0 0.0 0.00 0.29 0.00 92 1018.1
20210917104630 72 154 0.0 0.0 0.00 0.29 0.00 92 1018.1
20210917104127 72 106 0.0 0.0 0.00 0.29 0.00 92 1018.1
20210917103626 72 128 0.0 0.0 0.00 0.29 0.00 92 1018.1
20210917103126 72 135 0.0 0.0 0.00 0.29 0.00 92 1018.0
20210917102624 72 147 0.0 0.0 0.00 0.29 0.00 92 1017.8
20210917102118 72 137 0.0 0.0 0.00 0.30 0.00 92 1017.9
20210917101616 72 113 0.0 0.0 0.00 0.30 0.00 92 1017.8
20210917101116 72 154 0.0 0.0 0.00 0.30 0.00 92 1017.7
20210917100614 72 123 0.0 0.0 0.00 0.30 0.00 92 1017.7
20210917100114 72 150 0.0 0.0 0.00 0.30 0.00 92 1017.6
20210917095614 72 151 0.0 0.0 0.00 0.30 0.00 92 1017.6
20210917095111 72 124 0.0 0.0 0.00 0.30 0.00 92 1017.6
20210917094611 72 115 0.0 0.0 0.00 0.30 0.00 92 1017.5
20210917094109 72 111 0.0 1.0 0.00 0.30 0.00 92 1017.5
20210917093608 72 125 0.0 1.0 0.00 0.30 0.00 92 1017.4
20210917093108 72 118 0.0 0.0 0.00 0.30 0.00 92 1017.4
20210917092607 72 108 0.0 0.0 0.00 0.30 0.00 92 1017.3
20210917092107 72 102 0.0 0.0 0.00 0.30 0.00 92 1017.4
20210917091609 72 125 0.0 1.0 0.00 0.30 0.00 92 1017.4
20210917091108 72 150 0.0 1.0 0.00 0.30 0.00 92 1017.2
20210917090603 72 119 0.0 0.0 0.00 0.30 0.00 92 1017.2
20210917090102 72 105 0.0 0.0 0.00 0.31 0.00 92 1017.1
20210917085600 72 122 0.0 0.0 0.00 0.31 0.00 92 1017.0
20210917085054 72 95 0.0 0.0 0.00 0.31 0.00 92 1017.0
20210917084555 73 108 0.0 0.0 0.00 0.31 0.00 92 1017.0
20210917084054 73 104 0.0 0.0 0.00 0.32 0.00 92 1017.0
20210917083554 73 133 0.0 0.0 0.00 0.32 0.00 92 1017.0
20210917083052 73 119 0.0 0.0 0.00 0.32 0.00 92 1017.0
20210917082552 73 119 0.0 0.0 0.00 0.32 0.00 92 1017.0
20210917082052 73 119 0.0 0.0 0.00 0.32 0.00 92 1016.9
20210917081552 73 100 0.0 0.0 0.00 0.32 0.00 92 1016.9
20210917081055 73 86 0.0 0.0 0.00 0.32 0.00 92 1016.8
20210917080551 73 86 0.0 0.0 0.00 0.32 0.00 92 1016.8
20210917080048 73 86 0.0 0.0 0.00 0.32 0.00 92 1016.8
20210917075548 73 111 0.0 0.0 0.00 0.32 0.00 92 1016.8
20210917075048 73 104 0.0 0.0 0.00 0.32 0.00 92 1016.8
20210917074546 73 92 0.0 0.0 0.00 0.32 0.00 92 1016.8
20210917074046 73 125 0.0 0.0 0.00 0.32 0.00 92 1016.9
20210917073545 73 119 0.0 0.0 0.00 0.32 0.00 92 1017.0
20210917073045 73 117 0.0 0.0 0.00 0.32 0.00 92 1017.0
20210917072544 73 146 0.0 2.0 0.00 0.32 0.00 92 1016.9
20210917072042 73 142 0.0 2.0 0.00 0.32 0.00 92 1017.0
20210917071540 73 120 0.0 0.0 0.00 0.32 0.00 92 1017.1
20210917071041 73 117 0.0 0.0 0.00 0.32 0.00 92 1017.2
20210917070537 73 117 0.0 0.0 0.00 0.32 0.00 92 1017.2
20210917070038 73 129 0.0 0.0 0.00 0.32 0.00 92 1017.2
20210917065538 73 131 0.0 0.0 0.00 0.32 0.00 92 1017.1
20210917065038 73 134 0.0 0.0 0.00 0.32 0.00 92 1017.2
20210917064539 73 130 0.0 0.0 0.00 0.32 0.00 92 1017.2
20210917064037 73 130 0.0 0.0 0.00 0.32 0.00 92 1017.1
20210917063538 73 127 0.0 0.0 0.00 0.32 0.00 92 1017.0
20210917063035 73 98 0.0 0.0 0.00 0.32 0.00 92 1017.0
20210917062535 73 98 0.0 0.0 0.00 0.32 0.00 92 1017.0
20210917062033 73 93 0.0 0.0 0.00 0.32 0.00 92 1017.2
20210917061516 73 124 0.0 0.0 0.00 0.32 0.00 92 1017.3
20210917061016 73 139 0.0 0.0 0.00 0.32 0.00 92 1017.3
20210917060515 73 98 0.0 0.0 0.00 0.32 0.00 92 1017.4
20210917060013 73 119 0.0 0.0 0.00 0.32 0.00 92 1017.4
20210917055512 73 164 0.0 0.0 0.00 0.32 0.00 92 1017.4
20210917055012 73 105 0.0 0.0 0.00 0.32 0.00 92 1017.4
20210917054512 73 130 0.0 0.0 0.00 0.32 0.00 92 1017.4
20210917054012 73 128 0.0 0.0 0.00 0.32 0.00 92 1017.4
20210917053511 73 99 0.0 0.0 0.00 0.32 0.00 92 1017.4
20210917053010 73 121 0.0 0.0 0.00 0.32 0.00 92 1017.3
20210917052510 73 81 0.0 0.0 0.00 0.32 0.00 92 1017.2
20210917052008 73 125 0.0 0.0 0.00 0.32 0.00 92 1017.1
20210917051507 73 97 0.0 0.0 0.00 0.32 0.00 92 1017.1
20210917051008 73 108 0.0 1.0 0.00 0.32 0.00 92 1017.1
20210917050508 73 115 0.0 2.0 0.00 0.32 0.00 92 1017.2
20210917050007 73 112 0.0 1.0 0.00 0.32 0.00 92 1017.3
20210917045454 73 121 0.0 0.0 0.00 0.32 0.32 92 1017.3
20210917044951 73 102 0.0 0.0 0.00 0.32 0.32 92 1017.3
20210917044451 73 115 0.0 0.0 0.00 0.32 0.32 92 1017.3
20210917043951 73 145 0.0 0.0 0.00 0.32 0.32 92 1017.4
20210917043450 73 88 0.0 0.0 0.00 0.32 0.32 91 1017.4
20210917042949 73 119 0.0 0.0 0.00 0.32 0.32 91 1017.5
20210917042448 73 137 0.0 0.0 0.00 0.32 0.32 91 1017.6
20210917041946 73 112 0.0 0.0 0.00 0.32 0.32 91 1017.6
20210917041446 73 109 0.0 0.0 0.00 0.32 0.32 91 1017.6
20210917040946 73 122 0.0 0.0 0.00 0.32 0.32 91 1017.5
20210917040444 73 92 0.0 0.0 0.00 0.32 0.32 91 1017.5
20210917035941 73 107 0.0 0.0 0.00 0.32 0.32 91 1017.4
20210917035439 73 120 0.0 0.0 0.00 0.32 0.32 91 1017.4
20210917034938 73 119 0.0 0.0 0.00 0.32 0.32 91 1017.3
20210917034439 73 123 0.0 0.0 0.00 0.32 0.32 91 1017.3
20210917033938 73 119 0.0 0.0 0.00 0.32 0.32 91 1017.3
20210917033439 73 135 0.0 0.0 0.00 0.32 0.32 91 1017.3
20210917032935 73 135 0.0 0.0 0.00 0.32 0.32 91 1017.4
20210917032436 73 135 0.0 0.0 0.00 0.32 0.32 91 1017.4
20210917031933 73 135 0.0 0.0 0.00 0.32 0.32 91 1017.4
20210917031433 73 135 0.0 0.0 0.00 0.32 0.32 91 1017.4
20210917030932 73 135 0.0 0.0 0.00 0.32 0.32 91 1017.3
20210917030434 73 143 0.0 0.0 0.00 0.32 0.32 91 1017.2
20210917025931 73 144 0.0 0.0 0.00 0.32 0.32 91 1017.1
20210917025430 74 133 0.0 0.0 0.00 0.32 0.32 91 1017.1
20210917024927 74 137 0.0 0.0 0.00 0.32 0.32 91 1017.0
20210917024428 74 108 0.0 0.0 0.00 0.32 0.32 91 1016.9
20210917023928 74 79 0.0 0.0 0.00 0.32 0.32 91 1016.8
20210917023426 74 111 0.0 0.0 0.00 0.32 0.32 91 1016.8
20210917022925 74 100 0.0 0.0 0.00 0.32 0.32 91 1016.9
20210917022421 74 99 0.0 1.0 0.00 0.32 0.32 91 1016.8
20210917021922 74 99 0.0 1.0 0.00 0.32 0.32 91 1016.9
20210917021420 74 103 0.0 0.0 0.00 0.32 0.32 91 1016.8
20210917020920 74 104 0.0 0.0 0.00 0.32 0.32 91 1016.9
20210917020424 74 106 0.0 0.0 0.00 0.32 0.32 91 1016.9
20210917015917 74 106 0.0 0.0 0.00 0.32 0.32 91 1017.0
20210917015416 74 106 0.0 0.0 0.00 0.32 0.32 91 1016.9
20210917014913 74 106 0.0 0.0 0.00 0.32 0.32 90 1016.9
20210917014415 74 106 0.0 0.0 0.00 0.32 0.32 90 1017.0
20210917013916 74 106 0.0 0.0 0.00 0.32 0.32 90 1017.0
20210917013413 74 106 0.0 0.0 0.00 0.32 0.32 90 1016.9
20210917012911 74 106 0.0 0.0 0.00 0.32 0.32 90 1016.8
20210917012408 74 106 0.0 0.0 0.00 0.32 0.32 90 1016.8
20210917011907 74 106 0.0 0.0 0.00 0.32 0.32 90 1016.6
20210917011345 74 106 0.0 0.0 0.00 0.32 0.32 90 1016.5
20210917010819 74 106 0.0 0.0 0.00 0.32 0.32 90 1016.5
20210917010319 75 106 0.0 0.0 0.00 0.32 0.32 90 1016.5
20210917005819 75 106 0.0 0.0 0.00 0.32 0.32 90 1016.4
20210917005319 75 106 0.0 0.0 0.00 0.32 0.32 90 1016.4
20210917004817 75 106 0.0 0.0 0.00 0.32 0.32 90 1016.3
20210917004315 75 106 0.0 0.0 0.00 0.32 0.32 90 1016.1
20210917003813 75 106 0.0 0.0 0.00 0.32 0.32 90 1016.0
20210917003313 75 107 0.0 0.0 0.00 0.32 0.32 90 1015.9
20210917002812 75 107 0.0 0.0 0.00 0.32 0.32 90 1016.0
20210917002309 75 107 0.0 0.0 0.00 0.32 0.32 89 1016.1
20210917001810 75 107 0.0 0.0 0.00 0.32 0.32 89 1015.9
20210917001241 76 107 0.0 0.0 0.00 0.32 0.32 89 1015.9
20210917000741 76 107 0.0 0.0 0.00 0.32 0.32 89 1015.9
20210917000240 76 107 0.0 0.0 0.00 0.32 0.32 89 1015.8
20210916235733 76 107 0.0 0.0 0.00 0.32 0.32 90 1015.7
20210916235235 76 107 0.0 0.0 0.00 0.32 0.32 90 1015.6
20210916234733 76 107 0.0 0.0 0.00 0.32 0.32 90 1015.6
20210916234231 76 107 0.0 0.0 0.00 0.32 0.32 90 1015.6
20210916233729 76 106 0.0 0.0 0.00 0.32 0.32 90 1015.6
20210916233230 76 107 0.0 0.0 0.00 0.32 0.32 90 1015.7